sensor_id;sensor_type;location;lat;lon;timestamp;P1;durP1;ratioP1;P2;durP2;ratioP2
44078;SDS011;29744;49.078;12.878;2023-01-29T00:02:51;1.40;;;0.88;;
44078;SDS011;29744;49.078;12.878;2023-01-29T00:07:52;2.10;;;1.05;;
44078;SDS011;29744;49.078;12.878;2023-01-29T00:12:52;2.00;;;1.00;;
44078;SDS011;29744;49.078;12.878;2023-01-29T00:17:52;1.95;;;1.00;;
44078;SDS011;29744;49.078;12.878;2023-01-29T00:22:53;2.33;;;1.17;;
44078;SDS011;29744;49.078;12.878;2023-01-29T00:27:53;2.13;;;1.20;;
44078;SDS011;29744;49.078;12.878;2023-01-29T00:32:53;1.73;;;1.00;;
44078;SDS011;29744;49.078;12.878;2023-01-29T00:37:54;1.95;;;1.10;;
44078;SDS011;29744;49.078;12.878;2023-01-29T00:42:54;2.17;;;1.00;;
44078;SDS011;29744;49.078;12.878;2023-01-29T00:48:13;1.85;;;1.00;;
44078;SDS011;29744;49.078;12.878;2023-01-29T00:53:14;1.60;;;0.95;;
44078;SDS011;29744;49.078;12.878;2023-01-29T00:58:14;1.67;;;0.98;;
44078;SDS011;29744;49.078;12.878;2023-01-29T01:03:20;2.03;;;0.90;;
44078;SDS011;29744;49.078;12.878;2023-01-29T01:08:21;2.00;;;0.95;;
44078;SDS011;29744;49.078;12.878;2023-01-29T01:13:40;1.25;;;0.82;;
44078;SDS011;29744;49.078;12.878;2023-01-29T01:18:40;1.75;;;0.93;;
44078;SDS011;29744;49.078;12.878;2023-01-29T01:23:41;1.65;;;0.93;;
44078;SDS011;29744;49.078;12.878;2023-01-29T01:28:41;1.60;;;0.90;;
44078;SDS011;29744;49.078;12.878;2023-01-29T01:33:41;1.13;;;0.77;;
44078;SDS011;29744;49.078;12.878;2023-01-29T01:38:42;1.70;;;0.93;;
44078;SDS011;29744;49.078;12.878;2023-01-29T01:43:57;1.60;;;0.88;;
44078;SDS011;29744;49.078;12.878;2023-01-29T01:49:01;1.95;;;1.05;;
44078;SDS011;29744;49.078;12.878;2023-01-29T01:54:10;1.67;;;1.00;;
44078;SDS011;29744;49.078;12.878;2023-01-29T01:59:15;0.80;;;0.63;;
44078;SDS011;29744;49.078;12.878;2023-01-29T02:04:21;1.33;;;0.80;;
44078;SDS011;29744;49.078;12.878;2023-01-29T02:09:44;1.30;;;0.82;;
44078;SDS011;29744;49.078;12.878;2023-01-29T02:14:51;1.30;;;0.77;;
44078;SDS011;29744;49.078;12.878;2023-01-29T02:25:16;1.40;;;0.80;;
44078;SDS011;29744;49.078;12.878;2023-01-29T02:30:37;1.42;;;0.85;;
44078;SDS011;29744;49.078;12.878;2023-01-29T02:41:40;1.77;;;0.95;;
44078;SDS011;29744;49.078;12.878;2023-01-29T02:46:48;1.13;;;0.80;;
44078;SDS011;29744;49.078;12.878;2023-01-29T02:51:59;1.38;;;0.80;;
44078;SDS011;29744;49.078;12.878;2023-01-29T02:57:09;1.42;;;0.85;;
44078;SDS011;29744;49.078;12.878;2023-01-29T03:02:24;1.45;;;0.93;;
44078;SDS011;29744;49.078;12.878;2023-01-29T03:07:33;1.10;;;0.77;;
44078;SDS011;29744;49.078;12.878;2023-01-29T03:12:45;0.93;;;0.70;;
44078;SDS011;29744;49.078;12.878;2023-01-29T03:17:56;1.20;;;0.80;;
44078;SDS011;29744;49.078;12.878;2023-01-29T03:23:03;1.02;;;0.77;;
44078;SDS011;29744;49.078;12.878;2023-01-29T03:33:28;1.15;;;0.73;;
44078;SDS011;29744;49.078;12.878;2023-01-29T03:38:31;1.02;;;0.65;;
44078;SDS011;29744;49.078;12.878;2023-01-29T03:48:46;1.67;;;0.90;;
44078;SDS011;29744;49.078;12.878;2023-01-29T04:04:51;1.42;;;0.75;;
44078;SDS011;29744;49.078;12.878;2023-01-29T04:10:01;1.58;;;0.77;;
44078;SDS011;29744;49.078;12.878;2023-01-29T04:15:06;1.00;;;0.73;;
44078;SDS011;29744;49.078;12.878;2023-01-29T04:20:14;1.38;;;0.80;;
44078;SDS011;29744;49.078;12.878;2023-01-29T04:25:15;1.13;;;0.80;;
44078;SDS011;29744;49.078;12.878;2023-01-29T04:30:34;1.30;;;0.70;;
44078;SDS011;29744;49.078;12.878;2023-01-29T04:41:15;0.85;;;0.60;;
44078;SDS011;29744;49.078;12.878;2023-01-29T04:46:34;0.90;;;0.68;;
44078;SDS011;29744;49.078;12.878;2023-01-29T04:57:09;1.25;;;0.70;;
44078;SDS011;29744;49.078;12.878;2023-01-29T05:02:17;1.15;;;0.77;;
44078;SDS011;29744;49.078;12.878;2023-01-29T05:07:18;0.77;;;0.50;;
44078;SDS011;29744;49.078;12.878;2023-01-29T05:12:22;0.80;;;0.70;;
44078;SDS011;29744;49.078;12.878;2023-01-29T05:17:26;1.02;;;0.70;;
44078;SDS011;29744;49.078;12.878;2023-01-29T05:22:26;0.82;;;0.57;;
44078;SDS011;29744;49.078;12.878;2023-01-29T05:27:30;0.70;;;0.60;;
44078;SDS011;29744;49.078;12.878;2023-01-29T05:32:52;0.70;;;0.50;;
44078;SDS011;29744;49.078;12.878;2023-01-29T05:37:56;1.10;;;0.70;;
44078;SDS011;29744;49.078;12.878;2023-01-29T05:42:56;1.88;;;0.70;;
44078;SDS011;29744;49.078;12.878;2023-01-29T05:47:57;0.93;;;0.60;;
44078;SDS011;29744;49.078;12.878;2023-01-29T05:52:58;1.33;;;0.73;;
44078;SDS011;29744;49.078;12.878;2023-01-29T05:58:00;0.55;;;0.50;;
44078;SDS011;29744;49.078;12.878;2023-01-29T06:03:00;0.95;;;0.60;;
44078;SDS011;29744;49.078;12.878;2023-01-29T06:08:00;0.93;;;0.68;;
44078;SDS011;29744;49.078;12.878;2023-01-29T06:13:01;1.30;;;0.57;;
44078;SDS011;29744;49.078;12.878;2023-01-29T06:18:01;0.63;;;0.50;;
44078;SDS011;29744;49.078;12.878;2023-01-29T06:23:01;0.70;;;0.50;;
44078;SDS011;29744;49.078;12.878;2023-01-29T06:28:02;0.80;;;0.60;;
44078;SDS011;29744;49.078;12.878;2023-01-29T06:33:02;0.65;;;0.50;;
44078;SDS011;29744;49.078;12.878;2023-01-29T06:38:02;0.40;;;0.40;;
44078;SDS011;29744;49.078;12.878;2023-01-29T06:43:03;0.77;;;0.50;;
44078;SDS011;29744;49.078;12.878;2023-01-29T06:48:03;0.50;;;0.40;;
44078;SDS011;29744;49.078;12.878;2023-01-29T06:53:03;0.88;;;0.63;;
44078;SDS011;29744;49.078;12.878;2023-01-29T06:58:08;0.50;;;0.50;;
44078;SDS011;29744;49.078;12.878;2023-01-29T07:03:09;0.98;;;0.50;;
44078;SDS011;29744;49.078;12.878;2023-01-29T07:08:10;0.63;;;0.60;;
44078;SDS011;29744;49.078;12.878;2023-01-29T07:13:10;0.68;;;0.52;;
44078;SDS011;29744;49.078;12.878;2023-01-29T07:18:10;0.95;;;0.50;;
44078;SDS011;29744;49.078;12.878;2023-01-29T07:23:12;0.43;;;0.40;;
44078;SDS011;29744;49.078;12.878;2023-01-29T07:28:12;1.58;;;0.65;;
44078;SDS011;29744;49.078;12.878;2023-01-29T07:33:13;0.77;;;0.50;;
44078;SDS011;29744;49.078;12.878;2023-01-29T07:38:13;0.70;;;0.50;;
44078;SDS011;29744;49.078;12.878;2023-01-29T07:43:13;0.63;;;0.50;;
44078;SDS011;29744;49.078;12.878;2023-01-29T07:48:15;1.13;;;0.50;;
44078;SDS011;29744;49.078;12.878;2023-01-29T07:53:15;0.77;;;0.50;;
44078;SDS011;29744;49.078;12.878;2023-01-29T07:58:15;0.50;;;0.50;;
44078;SDS011;29744;49.078;12.878;2023-01-29T08:03:16;1.00;;;0.60;;
44078;SDS011;29744;49.078;12.878;2023-01-29T08:08:19;0.80;;;0.60;;
44078;SDS011;29744;49.078;12.878;2023-01-29T08:13:22;0.90;;;0.50;;
44078;SDS011;29744;49.078;12.878;2023-01-29T08:18:22;0.98;;;0.50;;
44078;SDS011;29744;49.078;12.878;2023-01-29T08:23:22;0.57;;;0.40;;
44078;SDS011;29744;49.078;12.878;2023-01-29T08:28:23;0.90;;;0.50;;
44078;SDS011;29744;49.078;12.878;2023-01-29T08:33:23;0.47;;;0.47;;
44078;SDS011;29744;49.078;12.878;2023-01-29T08:38:26;1.02;;;0.57;;
44078;SDS011;29744;49.078;12.878;2023-01-29T08:43:26;0.50;;;0.50;;
44078;SDS011;29744;49.078;12.878;2023-01-29T08:48:27;0.52;;;0.47;;
44078;SDS011;29744;49.078;12.878;2023-01-29T08:53:29;0.88;;;0.63;;
44078;SDS011;29744;49.078;12.878;2023-01-29T08:58:30;0.50;;;0.40;;
44078;SDS011;29744;49.078;12.878;2023-01-29T09:03:31;0.75;;;0.50;;
44078;SDS011;29744;49.078;12.878;2023-01-29T09:08:31;0.60;;;0.40;;
44078;SDS011;29744;49.078;12.878;2023-01-29T09:13:32;0.55;;;0.40;;
44078;SDS011;29744;49.078;12.878;2023-01-29T09:18:32;0.80;;;0.60;;
44078;SDS011;29744;49.078;12.878;2023-01-29T09:23:32;0.43;;;0.43;;
44078;SDS011;29744;49.078;12.878;2023-01-29T09:28:33;0.45;;;0.40;;
44078;SDS011;29744;49.078;12.878;2023-01-29T09:33:33;0.63;;;0.45;;
44078;SDS011;29744;49.078;12.878;2023-01-29T09:38:33;0.45;;;0.35;;
44078;SDS011;29744;49.078;12.878;2023-01-29T09:43:55;0.47;;;0.47;;
44078;SDS011;29744;49.078;12.878;2023-01-29T09:49:05;0.50;;;0.40;;
44078;SDS011;29744;49.078;12.878;2023-01-29T09:54:12;0.77;;;0.40;;
44078;SDS011;29744;49.078;12.878;2023-01-29T09:59:17;0.40;;;0.40;;
44078;SDS011;29744;49.078;12.878;2023-01-29T10:26:01;0.40;;;0.40;;
44078;SDS011;29744;49.078;12.878;2023-01-29T10:31:11;0.50;;;0.40;;
44078;SDS011;29744;49.078;12.878;2023-01-29T10:36:18;0.73;;;0.47;;
44078;SDS011;29744;49.078;12.878;2023-01-29T10:47:05;0.50;;;0.35;;
44078;SDS011;29744;49.078;12.878;2023-01-29T10:57:18;0.60;;;0.50;;
44078;SDS011;29744;49.078;12.878;2023-01-29T11:02:29;0.40;;;0.40;;
44078;SDS011;29744;49.078;12.878;2023-01-29T11:07:30;0.35;;;0.35;;
44078;SDS011;29744;49.078;12.878;2023-01-29T11:12:31;0.40;;;0.40;;
44078;SDS011;29744;49.078;12.878;2023-01-29T11:17:32;0.40;;;0.40;;
44078;SDS011;29744;49.078;12.878;2023-01-29T11:22:32;0.30;;;0.30;;
44078;SDS011;29744;49.078;12.878;2023-01-29T11:27:33;0.57;;;0.40;;
44078;SDS011;29744;49.078;12.878;2023-01-29T11:32:42;0.65;;;0.40;;
44078;SDS011;29744;49.078;12.878;2023-01-29T11:37:43;0.38;;;0.35;;
44078;SDS011;29744;49.078;12.878;2023-01-29T11:42:44;0.40;;;0.40;;
44078;SDS011;29744;49.078;12.878;2023-01-29T11:47:49;0.43;;;0.40;;
44078;SDS011;29744;49.078;12.878;2023-01-29T11:52:53;0.52;;;0.43;;
44078;SDS011;29744;49.078;12.878;2023-01-29T11:58:05;0.88;;;0.50;;
44078;SDS011;29744;49.078;12.878;2023-01-29T12:08:16;0.63;;;0.47;;
44078;SDS011;29744;49.078;12.878;2023-01-29T12:13:24;0.63;;;0.47;;
44078;SDS011;29744;49.078;12.878;2023-01-29T12:18:38;0.40;;;0.40;;
44078;SDS011;29744;49.078;12.878;2023-01-29T12:39:18;0.50;;;0.45;;
44078;SDS011;29744;49.078;12.878;2023-01-29T12:44:29;0.52;;;0.47;;
44078;SDS011;29744;49.078;12.878;2023-01-29T12:49:34;0.30;;;0.30;;
44078;SDS011;29744;49.078;12.878;2023-01-29T12:54:40;0.30;;;0.30;;
44078;SDS011;29744;49.078;12.878;2023-01-29T12:59:48;0.50;;;0.50;;
44078;SDS011;29744;49.078;12.878;2023-01-29T13:04:55;0.40;;;0.40;;
44078;SDS011;29744;49.078;12.878;2023-01-29T13:10:03;0.30;;;0.30;;
44078;SDS011;29744;49.078;12.878;2023-01-29T13:15:16;0.63;;;0.40;;
44078;SDS011;29744;49.078;12.878;2023-01-29T13:20:30;0.68;;;0.38;;
44078;SDS011;29744;49.078;12.878;2023-01-29T13:25:32;0.38;;;0.38;;
44078;SDS011;29744;49.078;12.878;2023-01-29T13:30:32;0.35;;;0.30;;
44078;SDS011;29744;49.078;12.878;2023-01-29T13:35:36;0.70;;;0.50;;
44078;SDS011;29744;49.078;12.878;2023-01-29T13:40:41;0.35;;;0.32;;
44078;SDS011;29744;49.078;12.878;2023-01-29T13:45:50;0.50;;;0.40;;
44078;SDS011;29744;49.078;12.878;2023-01-29T13:50:54;0.40;;;0.40;;
44078;SDS011;29744;49.078;12.878;2023-01-29T13:56:02;0.60;;;0.40;;
44078;SDS011;29744;49.078;12.878;2023-01-29T14:06:49;0.30;;;0.30;;
44078;SDS011;29744;49.078;12.878;2023-01-29T14:11:51;0.30;;;0.30;;
44078;SDS011;29744;49.078;12.878;2023-01-29T14:16:52;0.38;;;0.35;;
44078;SDS011;29744;49.078;12.878;2023-01-29T14:22:01;0.32;;;0.30;;
44078;SDS011;29744;49.078;12.878;2023-01-29T14:27:01;0.40;;;0.40;;
44078;SDS011;29744;49.078;12.878;2023-01-29T14:48:01;0.38;;;0.30;;
44078;SDS011;29744;49.078;12.878;2023-01-29T14:52:42;0.43;;;0.40;;
44078;SDS011;29744;49.078;12.878;2023-01-29T14:57:43;0.30;;;0.30;;
44078;SDS011;29744;49.078;12.878;2023-01-29T15:02:44;0.32;;;0.30;;
44078;SDS011;29744;49.078;12.878;2023-01-29T15:13:03;0.40;;;0.30;;
44078;SDS011;29744;49.078;12.878;2023-01-29T15:18:15;0.30;;;0.30;;
44078;SDS011;29744;49.078;12.878;2023-01-29T15:23:28;0.57;;;0.47;;
44078;SDS011;29744;49.078;12.878;2023-01-29T15:28:32;0.40;;;0.30;;
44078;SDS011;29744;49.078;12.878;2023-01-29T15:33:34;0.40;;;0.40;;
44078;SDS011;29744;49.078;12.878;2023-01-29T15:38:37;0.30;;;0.30;;
44078;SDS011;29744;49.078;12.878;2023-01-29T15:43:41;0.30;;;0.30;;
44078;SDS011;29744;49.078;12.878;2023-01-29T15:48:43;0.47;;;0.40;;
44078;SDS011;29744;49.078;12.878;2023-01-29T15:53:48;0.50;;;0.40;;
44078;SDS011;29744;49.078;12.878;2023-01-29T15:58:51;0.30;;;0.30;;
44078;SDS011;29744;49.078;12.878;2023-01-29T16:03:52;0.40;;;0.40;;
44078;SDS011;29744;49.078;12.878;2023-01-29T16:08:53;0.20;;;0.20;;
44078;SDS011;29744;49.078;12.878;2023-01-29T16:13:54;0.50;;;0.30;;
44078;SDS011;29744;49.078;12.878;2023-01-29T16:18:55;0.40;;;0.35;;
44078;SDS011;29744;49.078;12.878;2023-01-29T16:24:07;0.43;;;0.30;;
44078;SDS011;29744;49.078;12.878;2023-01-29T16:29:14;0.35;;;0.22;;
44078;SDS011;29744;49.078;12.878;2023-01-29T16:34:28;0.55;;;0.30;;
44078;SDS011;29744;49.078;12.878;2023-01-29T16:39:35;0.57;;;0.38;;
44078;SDS011;29744;49.078;12.878;2023-01-29T16:44:38;0.32;;;0.20;;
44078;SDS011;29744;49.078;12.878;2023-01-29T16:49:45;0.22;;;0.22;;
44078;SDS011;29744;49.078;12.878;2023-01-29T16:54:49;0.38;;;0.30;;
44078;SDS011;29744;49.078;12.878;2023-01-29T16:59:51;0.40;;;0.40;;
44078;SDS011;29744;49.078;12.878;2023-01-29T17:04:56;0.30;;;0.30;;
44078;SDS011;29744;49.078;12.878;2023-01-29T17:10:01;0.38;;;0.38;;
44078;SDS011;29744;49.078;12.878;2023-01-29T17:15:20;0.57;;;0.50;;
44078;SDS011;29744;49.078;12.878;2023-01-29T17:20:30;0.63;;;0.43;;
44078;SDS011;29744;49.078;12.878;2023-01-29T17:25:30;0.70;;;0.40;;
44078;SDS011;29744;49.078;12.878;2023-01-29T17:30:31;0.43;;;0.40;;
44078;SDS011;29744;49.078;12.878;2023-01-29T17:35:36;1.30;;;0.50;;
44078;SDS011;29744;49.078;12.878;2023-01-29T17:40:38;0.40;;;0.40;;
44078;SDS011;29744;49.078;12.878;2023-01-29T17:45:41;0.65;;;0.40;;
44078;SDS011;29744;49.078;12.878;2023-01-29T17:50:42;0.43;;;0.30;;
44078;SDS011;29744;49.078;12.878;2023-01-29T17:55:47;0.45;;;0.40;;
44078;SDS011;29744;49.078;12.878;2023-01-29T18:00:48;0.70;;;0.40;;
44078;SDS011;29744;49.078;12.878;2023-01-29T18:05:49;0.32;;;0.32;;
44078;SDS011;29744;49.078;12.878;2023-01-29T18:10:49;0.40;;;0.40;;
44078;SDS011;29744;49.078;12.878;2023-01-29T18:15:50;1.15;;;0.50;;
44078;SDS011;29744;49.078;12.878;2023-01-29T18:20:50;0.45;;;0.40;;
44078;SDS011;29744;49.078;12.878;2023-01-29T18:25:51;0.30;;;0.30;;
44078;SDS011;29744;49.078;12.878;2023-01-29T18:30:53;0.82;;;0.50;;
44078;SDS011;29744;49.078;12.878;2023-01-29T18:35:53;0.40;;;0.40;;
44078;SDS011;29744;49.078;12.878;2023-01-29T18:41:00;0.75;;;0.50;;
44078;SDS011;29744;49.078;12.878;2023-01-29T18:46:02;0.38;;;0.38;;
44078;SDS011;29744;49.078;12.878;2023-01-29T18:51:02;0.47;;;0.38;;
44078;SDS011;29744;49.078;12.878;2023-01-29T18:56:03;0.43;;;0.35;;
44078;SDS011;29744;49.078;12.878;2023-01-29T19:01:05;0.40;;;0.40;;
44078;SDS011;29744;49.078;12.878;2023-01-29T19:06:09;0.70;;;0.40;;
44078;SDS011;29744;49.078;12.878;2023-01-29T19:11:10;0.50;;;0.45;;
44078;SDS011;29744;49.078;12.878;2023-01-29T19:16:11;0.40;;;0.40;;
44078;SDS011;29744;49.078;12.878;2023-01-29T19:21:13;0.50;;;0.40;;
44078;SDS011;29744;49.078;12.878;2023-01-29T19:26:15;0.40;;;0.40;;
44078;SDS011;29744;49.078;12.878;2023-01-29T19:31:15;0.50;;;0.30;;
44078;SDS011;29744;49.078;12.878;2023-01-29T19:36:16;0.32;;;0.30;;
44078;SDS011;29744;49.078;12.878;2023-01-29T19:41:16;0.60;;;0.50;;
44078;SDS011;29744;49.078;12.878;2023-01-29T19:46:16;0.60;;;0.60;;
44078;SDS011;29744;49.078;12.878;2023-01-29T19:51:16;0.30;;;0.30;;
44078;SDS011;29744;49.078;12.878;2023-01-29T19:56:17;0.77;;;0.50;;
44078;SDS011;29744;49.078;12.878;2023-01-29T20:01:19;0.30;;;0.28;;
44078;SDS011;29744;49.078;12.878;2023-01-29T20:06:24;0.73;;;0.50;;
44078;SDS011;29744;49.078;12.878;2023-01-29T20:11:26;0.70;;;0.50;;
44078;SDS011;29744;49.078;12.878;2023-01-29T20:16:26;0.50;;;0.50;;
44078;SDS011;29744;49.078;12.878;2023-01-29T20:21:26;0.40;;;0.40;;
44078;SDS011;29744;49.078;12.878;2023-01-29T20:26:27;0.50;;;0.35;;
44078;SDS011;29744;49.078;12.878;2023-01-29T20:31:27;0.57;;;0.50;;
44078;SDS011;29744;49.078;12.878;2023-01-29T20:36:27;0.30;;;0.30;;
44078;SDS011;29744;49.078;12.878;2023-01-29T20:41:27;0.75;;;0.50;;
44078;SDS011;29744;49.078;12.878;2023-01-29T20:46:28;0.47;;;0.40;;
44078;SDS011;29744;49.078;12.878;2023-01-29T20:51:29;0.60;;;0.60;;
44078;SDS011;29744;49.078;12.878;2023-01-29T20:56:29;0.85;;;0.60;;
44078;SDS011;29744;49.078;12.878;2023-01-29T21:01:30;0.77;;;0.55;;
44078;SDS011;29744;49.078;12.878;2023-01-29T21:06:30;0.50;;;0.50;;
44078;SDS011;29744;49.078;12.878;2023-01-29T21:11:30;0.60;;;0.50;;
44078;SDS011;29744;49.078;12.878;2023-01-29T21:16:32;0.57;;;0.55;;
44078;SDS011;29744;49.078;12.878;2023-01-29T21:21:32;0.70;;;0.50;;
44078;SDS011;29744;49.078;12.878;2023-01-29T21:26:33;0.80;;;0.50;;
44078;SDS011;29744;49.078;12.878;2023-01-29T21:31:37;0.88;;;0.60;;
44078;SDS011;29744;49.078;12.878;2023-01-29T21:36:37;0.63;;;0.50;;
44078;SDS011;29744;49.078;12.878;2023-01-29T21:41:38;0.63;;;0.50;;
44078;SDS011;29744;49.078;12.878;2023-01-29T21:46:57;0.77;;;0.50;;
44078;SDS011;29744;49.078;12.878;2023-01-29T21:51:57;0.80;;;0.50;;
44078;SDS011;29744;49.078;12.878;2023-01-29T21:56:57;1.05;;;0.60;;
44078;SDS011;29744;49.078;12.878;2023-01-29T22:01:58;0.60;;;0.50;;
44078;SDS011;29744;49.078;12.878;2023-01-29T22:06:59;0.40;;;0.40;;
44078;SDS011;29744;49.078;12.878;2023-01-29T22:11:59;0.40;;;0.40;;
44078;SDS011;29744;49.078;12.878;2023-01-29T22:16:59;0.75;;;0.60;;
44078;SDS011;29744;49.078;12.878;2023-01-29T22:22:00;0.50;;;0.50;;
44078;SDS011;29744;49.078;12.878;2023-01-29T22:27:00;0.88;;;0.50;;
44078;SDS011;29744;49.078;12.878;2023-01-29T22:32:00;0.60;;;0.50;;
44078;SDS011;29744;49.078;12.878;2023-01-29T22:37:01;0.40;;;0.40;;
44078;SDS011;29744;49.078;12.878;2023-01-29T22:42:01;0.57;;;0.40;;
44078;SDS011;29744;49.078;12.878;2023-01-29T22:47:01;1.27;;;0.60;;
44078;SDS011;29744;49.078;12.878;2023-01-29T22:52:02;0.52;;;0.50;;
44078;SDS011;29744;49.078;12.878;2023-01-29T22:57:11;0.52;;;0.50;;
44078;SDS011;29744;49.078;12.878;2023-01-29T23:02:13;0.52;;;0.50;;
44078;SDS011;29744;49.078;12.878;2023-01-29T23:07:13;0.75;;;0.50;;
44078;SDS011;29744;49.078;12.878;2023-01-29T23:12:14;0.50;;;0.40;;
44078;SDS011;29744;49.078;12.878;2023-01-29T23:17:14;0.52;;;0.50;;
44078;SDS011;29744;49.078;12.878;2023-01-29T23:22:14;0.93;;;0.63;;
44078;SDS011;29744;49.078;12.878;2023-01-29T23:27:15;1.02;;;0.50;;
44078;SDS011;29744;49.078;12.878;2023-01-29T23:32:16;0.63;;;0.52;;
44078;SDS011;29744;49.078;12.878;2023-01-29T23:37:18;0.57;;;0.50;;
44078;SDS011;29744;49.078;12.878;2023-01-29T23:42:18;0.47;;;0.43;;
44078;SDS011;29744;49.078;12.878;2023-01-29T23:47:18;0.70;;;0.40;;
44078;SDS011;29744;49.078;12.878;2023-01-29T23:52:19;0.58;;;0.54;;
44078;SDS011;29744;49.078;12.878;2023-01-29T23:57:19;0.60;;;0.50;;
